Time;durP1;ratioP1;P1;durP2;ratioP2;P2;SDS_P1;SDS_P2;PMS_P1;PMS_P2;Temp;Humidity;BMP_temperature;BMP_pressure;BME280_temperature;BME280_humidity;BME280_pressure;Samples;Min_cycle;Max_cycle;Signal;HPM_P1;HPM_P2
2023/08/23 00:00:07;;;;;;;6.80;4.18;;;;;;;19.75;100.00;97599.28;5017401;28;20035;-55
2023/08/23 00:02:39;;;;;;;7.22;4.05;;;;;;;19.62;100.00;97589.94;4972501;28;20093;-54
2023/08/23 00:05:07;;;;;;;7.22;4.00;;;;;;;19.69;100.00;97585.97;4995279;28;20692;-56
2023/08/23 00:07:33;;;;;;;8.40;4.50;;;;;;;19.85;100.00;97586.44;4983460;28;20050;-53
2023/08/23 00:10:00;;;;;;;8.07;3.50;;;;;;;19.54;100.00;97587.09;4992359;28;20627;-53
2023/08/23 00:12:27;;;;;;;8.23;4.30;;;;;;;19.38;100.00;97586.59;5003049;28;20133;-54
2023/08/23 00:14:53;;;;;;;7.65;4.10;;;;;;;19.45;100.00;97579.56;5004789;28;20096;-53
2023/08/23 00:17:20;;;;;;;8.02;3.90;;;;;;;19.53;100.00;97582.72;4958709;28;20528;-54
2023/08/23 00:19:46;;;;;;;6.03;3.88;;;;;;;19.52;100.00;97576.41;4981828;28;20420;-55
2023/08/23 00:22:13;;;;;;;6.57;4.00;;;;;;;19.59;100.00;97570.50;4997133;28;20044;-54
2023/08/23 00:24:40;;;;;;;7.35;4.13;;;;;;;19.55;100.00;97578.56;4992481;28;20123;-53
2023/08/23 00:27:06;;;;;;;6.13;3.90;;;;;;;19.40;100.00;97576.09;4988167;28;20048;-54
2023/08/23 00:29:34;;;;;;;7.68;3.92;;;;;;;19.26;100.00;97576.09;4980379;28;20045;-55
2023/08/23 00:32:00;;;;;;;6.45;4.82;;;;;;;19.06;100.00;97567.94;4966567;28;20046;-56
2023/08/23 00:34:27;;;;;;;6.53;3.92;;;;;;;18.79;100.00;97572.25;5008206;28;20058;-55
2023/08/23 00:36:54;;;;;;;5.93;3.97;;;;;;;18.95;100.00;97575.53;4983459;28;20050;-55
2023/08/23 00:39:20;;;;;;;6.90;4.03;;;;;;;19.10;100.00;97577.19;4988784;28;20138;-55
2023/08/23 00:41:47;;;;;;;5.85;4.20;;;;;;;19.00;100.00;97571.06;4962693;28;20057;-56
2023/08/23 00:44:13;;;;;;;8.27;4.55;;;;;;;18.93;100.00;97569.53;4979909;28;20619;-50
2023/08/23 00:46:40;;;;;;;7.03;4.30;;;;;;;18.97;100.00;97567.00;4962283;28;20073;-56
2023/08/23 00:49:07;;;;;;;8.38;4.78;;;;;;;19.00;100.00;97569.13;4961970;28;20059;-56
2023/08/23 00:51:34;;;;;;;7.32;4.47;;;;;;;18.97;100.00;97564.25;5014909;28;20037;-53
2023/08/23 00:54:01;;;;;;;6.10;3.90;;;;;;;18.98;100.00;97565.88;4971392;28;20045;-56
2023/08/23 00:56:29;;;;;;;8.77;4.10;;;;;;;18.89;100.00;97574.00;4978617;28;20154;-53
2023/08/23 00:58:55;;;;;;;6.78;4.45;;;;;;;18.70;100.00;97561.16;4989746;28;20356;-55
2023/08/23 01:01:22;;;;;;;8.10;4.38;;;;;;;18.64;100.00;97567.84;4977079;28;20502;-55
2023/08/23 01:03:49;;;;;;;15.77;5.45;;;;;;;18.56;100.00;97566.59;4962582;28;20168;-54
2023/08/23 01:06:46;;;;;;;8.10;4.85;;;;;;;18.72;100.00;97563.59;4975050;28;20066;-55
2023/08/23 01:09:24;;;;;;;7.15;4.03;;;;;;;18.75;100.00;97570.41;4961190;28;20042;-53
2023/08/23 01:12:08;;;;;;;6.40;4.40;;;;;;;18.63;100.00;97566.22;4973948;28;20046;-56
2023/08/23 01:14:59;;;;;;;7.25;4.47;;;;;;;18.48;100.00;97572.78;4961876;28;20104;-56
2023/08/23 01:17:27;;;;;;;8.70;4.55;;;;;;;18.53;100.00;97572.69;4974211;28;20100;-56
2023/08/23 01:19:56;;;;;;;7.22;5.30;;;;;;;18.62;100.00;97574.75;4972492;28;20679;-56
2023/08/23 01:22:23;;;;;;;7.25;4.72;;;;;;;18.51;100.00;97577.66;5017137;28;20039;-55
2023/08/23 01:24:51;;;;;;;6.18;4.80;;;;;;;18.56;100.00;97576.75;4984577;28;20042;-54
2023/08/23 01:27:18;;;;;;;7.30;4.55;;;;;;;18.68;100.00;97579.00;4992496;28;20041;-56
2023/08/23 01:29:46;;;;;;;7.70;4.45;;;;;;;18.72;100.00;97578.13;4961131;28;20770;-56
2023/08/23 01:32:57;;;;;;;7.90;4.40;;;;;;;18.93;100.00;97579.69;4971994;28;20521;-56
2023/08/23 01:35:44;;;;;;;6.32;4.95;;;;;;;18.85;100.00;97583.94;4999234;28;20089;-55
2023/08/23 01:38:11;;;;;;;7.28;4.07;;;;;;;18.66;100.00;97586.75;4996416;28;20043;-55
2023/08/23 01:40:39;;;;;;;7.68;4.63;;;;;;;18.52;100.00;97597.66;4970281;28;20051;-55
2023/08/23 01:43:05;;;;;;;6.65;4.72;;;;;;;18.58;100.00;97599.22;4952475;28;22346;-54
2023/08/23 01:45:32;;;;;;;7.30;4.55;;;;;;;18.49;100.00;97601.81;4969990;28;20047;-54
2023/08/23 01:47:59;;;;;;;8.68;4.70;;;;;;;18.31;100.00;97596.06;4982526;28;20048;-54
2023/08/23 01:50:27;;;;;;;6.45;4.55;;;;;;;18.19;100.00;97591.03;4963425;28;20525;-55
2023/08/23 01:52:53;;;;;;;9.30;4.65;;;;;;;18.20;100.00;97591.81;4968323;28;20050;-56
2023/08/23 01:55:20;;;;;;;7.65;4.75;;;;;;;18.25;100.00;97582.72;4959105;28;20038;-53
2023/08/23 01:57:47;;;;;;;6.95;4.93;;;;;;;18.15;100.00;97586.44;4980487;28;20380;-55
2023/08/23 02:00:14;;;;;;;8.73;5.20;;;;;;;18.15;100.00;97586.44;4977271;28;20053;-54
2023/08/23 02:02:41;;;;;;;7.20;4.78;;;;;;;18.24;100.00;97581.09;5029930;28;20053;-54
2023/08/23 02:05:08;;;;;;;7.57;5.45;;;;;;;18.14;100.00;97579.31;4961419;28;20126;-56
2023/08/23 02:07:35;;;;;;;8.98;5.28;;;;;;;18.13;100.00;97588.66;5002054;28;20040;-52
2023/08/23 02:10:03;;;;;;;8.23;5.35;;;;;;;18.22;100.00;97573.19;4973845;28;20038;-54
2023/08/23 02:12:29;;;;;;;8.68;5.32;;;;;;;18.37;100.00;97576.78;4983934;28;20479;-53
2023/08/23 02:14:56;;;;;;;7.18;4.82;;;;;;;18.31;100.00;97579.59;4972232;28;20108;-53
2023/08/23 02:17:24;;;;;;;6.20;4.50;;;;;;;18.22;100.00;97586.88;4996481;28;20042;-52
2023/08/23 02:19:50;;;;;;;8.73;5.65;;;;;;;18.38;100.00;97576.47;4974487;28;20579;-51
2023/08/23 02:22:17;;;;;;;7.63;4.82;;;;;;;18.47;100.00;97582.13;4978037;28;20046;-55
2023/08/23 02:24:43;;;;;;;11.57;5.30;;;;;;;18.42;100.00;97579.44;4963643;28;20043;-53
2023/08/23 02:27:10;;;;;;;6.50;4.93;;;;;;;18.34;100.00;97586.41;5016050;28;20071;-56
2023/08/23 02:29:36;;;;;;;6.30;4.65;;;;;;;18.41;100.00;97578.63;4965992;28;20053;-50
2023/08/23 02:32:03;;;;;;;7.72;5.15;;;;;;;18.39;100.00;97583.59;4979215;28;20053;-55
2023/08/23 02:34:30;;;;;;;8.63;4.93;;;;;;;18.50;100.00;97572.47;4961063;28;20081;-56
2023/08/23 02:36:56;;;;;;;7.90;5.05;;;;;;;18.51;100.00;97569.44;4982218;28;20695;-55
2023/08/23 02:39:23;;;;;;;7.35;5.00;;;;;;;18.56;100.00;97571.25;4985225;28;20043;-55
2023/08/23 02:41:49;;;;;;;7.43;5.32;;;;;;;18.53;100.00;97560.88;4978291;28;20043;-56
2023/08/23 02:44:16;;;;;;;9.07;5.15;;;;;;;18.39;100.00;97556.19;4968479;28;20046;-55
2023/08/23 02:46:43;;;;;;;9.45;5.15;;;;;;;18.36;100.00;97567.75;4973204;28;20777;-55
2023/08/23 02:49:10;;;;;;;6.88;5.07;;;;;;;18.24;100.00;97561.91;4986415;28;20053;-56
2023/08/23 02:51:36;;;;;;;10.65;5.03;;;;;;;17.95;100.00;97563.69;4968794;28;20116;-55
2023/08/23 02:54:03;;;;;;;8.23;5.20;;;;;;;17.95;100.00;97558.19;4964076;28;20059;-55
2023/08/23 02:56:30;;;;;;;7.85;5.65;;;;;;;17.89;100.00;97557.47;4970847;28;20043;-54
2023/08/23 02:58:56;;;;;;;9.43;5.07;;;;;;;17.81;100.00;97558.91;4985091;28;20061;-54
2023/08/23 03:01:23;;;;;;;11.07;5.45;;;;;;;17.75;100.00;97570.22;4967774;28;20040;-55
2023/08/23 03:03:50;;;;;;;7.70;5.95;;;;;;;17.70;100.00;97573.03;4969662;28;20138;-55
2023/08/23 03:06:16;;;;;;;9.10;6.13;;;;;;;17.77;100.00;97577.03;4975088;28;20054;-52
2023/08/23 03:08:43;;;;;;;8.13;5.82;;;;;;;17.91;100.00;97574.41;4975753;28;20057;-55
2023/08/23 03:11:09;;;;;;;8.95;5.03;;;;;;;17.80;100.00;97568.25;4962376;28;20038;-54
2023/08/23 03:13:37;;;;;;;8.35;6.15;;;;;;;17.81;100.00;97577.28;4967118;28;20540;-51
2023/08/23 03:16:04;;;;;;;9.43;6.38;;;;;;;17.92;100.00;97581.50;4977894;28;20283;-55
2023/08/23 03:18:32;;;;;;;9.05;5.88;;;;;;;18.04;100.00;97572.84;4980397;28;20699;-55
2023/08/23 03:20:59;;;;;;;8.70;6.18;;;;;;;17.89;100.00;97575.81;4958381;28;20035;-52
2023/08/23 03:23:26;;;;;;;10.95;6.03;;;;;;;17.92;100.00;97572.47;4968225;28;20523;-53
2023/08/23 03:25:54;;;;;;;9.25;6.50;;;;;;;17.97;100.00;97577.06;4968178;28;21374;-55
2023/08/23 03:28:21;;;;;;;15.95;7.20;;;;;;;18.01;100.00;97581.66;5019013;28;20042;-55
2023/08/23 03:30:48;;;;;;;7.05;5.32;;;;;;;17.88;100.00;97565.97;4968603;28;20644;-55
2023/08/23 03:33:15;;;;;;;8.77;5.97;;;;;;;17.67;100.00;97571.72;4984415;28;20058;-53
2023/08/23 03:35:42;;;;;;;11.63;5.90;;;;;;;17.67;100.00;97563.50;4961887;28;20162;-54
2023/08/23 03:38:08;;;;;;;9.68;6.00;;;;;;;17.55;100.00;97567.47;5000657;28;20617;-54
2023/08/23 03:40:39;;;;;;;7.85;6.30;;;;;;;17.48;100.00;97572.50;4962777;28;20118;-55
2023/08/23 03:43:05;;;;;;;8.43;6.37;;;;;;;17.36;100.00;97559.22;4974191;28;20573;-53
2023/08/23 03:45:33;;;;;;;8.95;6.22;;;;;;;17.31;100.00;97569.44;4963206;28;20718;-55
2023/08/23 03:48:01;;;;;;;8.60;6.20;;;;;;;17.31;100.00;97575.69;4979824;28;20123;-54
2023/08/23 03:50:28;;;;;;;10.65;6.35;;;;;;;17.45;100.00;97573.06;4968950;28;20043;-53
2023/08/23 03:52:54;;;;;;;9.68;8.00;;;;;;;17.45;100.00;97572.25;4977147;28;20061;-55
2023/08/23 03:55:21;;;;;;;8.57;6.95;;;;;;;17.56;100.00;97579.25;4964055;28;20088;-55
2023/08/23 03:57:50;;;;;;;9.77;6.38;;;;;;;17.63;100.00;97573.41;4994186;28;20048;-53
2023/08/23 04:00:17;;;;;;;11.68;6.75;;;;;;;17.67;100.00;97566.22;4967093;28;20134;-55
2023/08/23 04:02:44;;;;;;;8.07;6.78;;;;;;;17.85;100.00;97566.53;4975355;28;20054;-54
2023/08/23 04:05:11;;;;;;;15.60;6.95;;;;;;;17.97;100.00;97563.34;4970713;28;20031;-53
2023/08/23 04:07:39;;;;;;;8.98;6.47;;;;;;;18.00;100.00;97566.34;4987462;28;20046;-55
2023/08/23 04:10:07;;;;;;;8.13;6.45;;;;;;;18.10;100.00;97559.09;4990715;28;20612;-55
2023/08/23 04:12:34;;;;;;;10.18;6.85;;;;;;;18.04;100.00;97559.16;5002098;28;20060;-56
2023/08/23 04:15:00;;;;;;;9.50;6.28;;;;;;;17.79;100.00;97554.84;4948426;28;20053;-55
2023/08/23 04:17:28;;;;;;;10.70;7.10;;;;;;;17.56;100.00;97557.34;4973412;28;20498;-54
2023/08/23 04:19:55;;;;;;;10.02;6.90;;;;;;;17.50;100.00;97567.53;4979245;28;20074;-55
2023/08/23 04:22:22;;;;;;;10.40;7.03;;;;;;;17.49;100.00;97560.44;4973290;28;20042;-53
2023/08/23 04:24:49;;;;;;;8.82;7.20;;;;;;;17.47;100.00;97559.91;4971964;28;20055;-54
2023/08/23 04:27:15;;;;;;;9.25;7.03;;;;;;;17.63;100.00;97566.03;4968627;28;20439;-53
2023/08/23 04:29:42;;;;;;;10.77;7.05;;;;;;;17.57;100.00;97566.38;4959343;28;20129;-55
2023/08/23 04:32:12;;;;;;;9.23;6.88;;;;;;;17.48;100.00;97575.25;4985246;28;20048;-54
2023/08/23 04:34:40;;;;;;;;;;;;;;;17.46;100.00;97571.16;4967264;28;20047;-53
2023/08/23 04:37:07;;;;;;;8.60;6.50;;;;;;;17.45;100.00;97578.56;4982238;28;20351;-54
2023/08/23 04:39:34;;;;;;;9.93;6.47;;;;;;;17.52;100.00;97580.94;4970822;28;20039;-55
2023/08/23 04:42:02;;;;;;;10.10;6.43;;;;;;;17.58;100.00;97578.94;4998688;28;20067;-53
2023/08/23 04:44:29;;;;;;;8.15;6.75;;;;;;;17.73;100.00;97576.00;4962734;28;20042;-56
2023/08/23 04:46:58;;;;;;;9.80;6.60;;;;;;;17.75;100.00;97579.28;4996547;28;20134;-56
2023/08/23 04:49:26;;;;;;;9.75;6.32;;;;;;;17.81;100.00;97580.81;4979044;28;20137;-53
2023/08/23 04:51:53;;;;;;;12.48;7.32;;;;;;;17.83;100.00;97577.00;4994477;28;20054;-55
2023/08/23 04:54:20;;;;;;;7.60;6.43;;;;;;;17.67;100.00;97575.28;4973571;28;20052;-55
2023/08/23 04:56:47;;;;;;;10.13;7.38;;;;;;;17.66;100.00;97576.34;4988502;28;20039;-54
2023/08/23 04:59:13;;;;;;;9.65;6.85;;;;;;;17.73;100.00;97591.63;5002915;28;20141;-55
2023/08/23 05:01:40;;;;;;;11.85;7.18;;;;;;;17.77;100.00;97589.94;4980052;28;20047;-54
2023/08/23 05:04:07;;;;;;;8.70;7.25;;;;;;;17.75;100.00;97587.50;4985668;28;20056;-51
2023/08/23 05:06:35;;;;;;;10.27;7.00;;;;;;;17.87;100.00;97583.50;4965700;28;20439;-55
2023/08/23 05:09:05;;;;;;;9.43;7.40;;;;;;;18.07;100.00;97583.19;4996478;28;20050;-55
2023/08/23 05:11:32;;;;;;;8.98;6.95;;;;;;;18.21;100.00;97585.25;4991256;28;20049;-56
2023/08/23 05:13:58;;;;;;;11.25;6.78;;;;;;;18.24;100.00;97583.84;4995672;28;20039;-53
2023/08/23 05:16:27;;;;;;;9.32;6.50;;;;;;;18.15;100.00;97587.25;4959321;28;20153;-55
2023/08/23 05:18:54;;;;;;;11.75;6.50;;;;;;;18.25;100.00;97589.03;4963354;28;20700;-55
2023/08/23 05:21:21;;;;;;;10.63;7.05;;;;;;;18.33;100.00;97584.78;4987970;28;20051;-55
2023/08/23 05:23:48;;;;;;;9.02;6.85;;;;;;;18.58;100.00;97577.28;4998918;28;20546;-54
2023/08/23 05:26:14;;;;;;;12.32;7.25;;;;;;;18.63;100.00;97579.09;4968342;28;20042;-53
2023/08/23 05:28:41;;;;;;;8.73;6.65;;;;;;;18.63;100.00;97576.34;4998197;28;20074;-54
2023/08/23 05:31:07;;;;;;;9.52;6.80;;;;;;;18.67;100.00;97577.38;4981369;28;20066;-52
2023/08/23 05:33:34;;;;;;;11.75;7.00;;;;;;;18.77;100.00;97570.91;5012501;28;20052;-54
2023/08/23 05:36:03;;;;;;;9.25;6.95;;;;;;;18.87;100.00;97580.91;4983582;28;20455;-54
2023/08/23 05:38:29;;;;;;;9.70;6.57;;;;;;;18.88;100.00;97591.59;4973062;28;20126;-55
2023/08/23 05:40:58;;;;;;;11.25;6.65;;;;;;;19.00;100.00;97582.03;4962956;28;20043;-53
2023/08/23 05:43:26;;;;;;;8.48;6.75;;;;;;;19.11;100.00;97591.75;4986320;28;20153;-53
2023/08/23 05:45:56;;;;;;;8.93;7.28;;;;;;;19.22;100.00;97589.63;4964807;28;20047;-52
2023/08/23 05:48:23;;;;;;;8.35;6.18;;;;;;;19.38;100.00;97589.34;4972333;28;20046;-55
2023/08/23 05:50:50;;;;;;;11.05;6.28;;;;;;;19.43;100.00;97597.47;4967287;28;20046;-54
2023/08/23 05:53:19;;;;;;;9.90;6.65;;;;;;;19.56;100.00;97596.66;4987400;28;20063;-56
2023/08/23 05:55:48;;;;;;;8.07;5.97;;;;;;;19.67;100.00;97596.41;4978136;28;20053;-55
2023/08/23 05:58:18;;;;;;;10.05;6.22;;;;;;;19.79;100.00;97599.47;4977146;28;20855;-61
2023/08/23 06:00:46;;;;;;;8.13;6.25;;;;;;;19.89;100.00;97602.00;4959019;28;20070;-61
2023/08/23 06:03:14;;;;;;;10.63;6.70;;;;;;;19.98;100.00;97593.03;4978200;28;20046;-62
2023/08/23 06:05:43;;;;;;;11.15;6.40;;;;;;;20.10;100.00;97598.03;4985060;28;20102;-62
2023/08/23 06:08:09;;;;;;;10.10;6.47;;;;;;;20.21;100.00;97595.84;4982058;28;20454;-61
2023/08/23 06:10:36;;;;;;;8.90;6.85;;;;;;;20.28;100.00;97594.28;4964301;28;20043;-62
2023/08/23 06:13:04;;;;;;;8.73;6.00;;;;;;;20.37;100.00;97597.13;4983910;28;20103;-62
2023/08/23 06:15:30;;;;;;;11.77;6.10;;;;;;;20.45;100.00;97598.31;4968597;28;20046;-62
2023/08/23 06:17:57;;;;;;;11.32;6.18;;;;;;;20.49;100.00;97593.81;4993266;28;20056;-62
2023/08/23 06:20:23;;;;;;;8.18;5.20;;;;;;;20.55;100.00;97600.00;4972690;28;20097;-62
2023/08/23 06:22:50;;;;;;;9.68;6.10;;;;;;;20.45;100.00;97601.06;4982726;28;20043;-62
2023/08/23 06:25:16;;;;;;;9.23;5.60;;;;;;;20.39;100.00;97600.38;4977620;28;20049;-62
2023/08/23 06:27:44;;;;;;;7.97;5.85;;;;;;;20.40;100.00;97604.75;4970571;28;20044;-62
2023/08/23 06:30:14;;;;;;;6.47;4.85;;;;;;;20.46;100.00;97599.97;4962107;28;20077;-62
2023/08/23 06:32:48;;;;;;;7.15;5.32;;;;;;;20.55;100.00;97605.50;5000312;28;20051;-62
2023/08/23 06:35:16;;;;;;;8.63;5.57;;;;;;;20.62;100.00;97608.63;4986682;28;20042;-61
2023/08/23 06:37:43;;;;;;;7.57;5.22;;;;;;;20.66;98.54;97600.56;4975829;28;20043;-61
2023/08/23 06:40:12;;;;;;;14.55;5.35;;;;;;;20.76;92.10;97616.00;4967534;28;20042;-61
2023/08/23 06:42:39;;;;;;;8.13;5.18;;;;;;;20.88;90.03;97599.78;4975902;28;20058;-61
2023/08/23 06:45:08;;;;;;;6.00;4.60;;;;;;;21.02;89.91;97604.38;4981107;28;20434;-61
2023/08/23 06:47:39;;;;;;;8.73;4.80;;;;;;;21.15;89.47;97603.47;4966677;28;20046;-61
2023/08/23 06:50:06;;;;;;;9.45;5.55;;;;;;;21.26;88.29;97605.97;4955850;28;20045;-61
2023/08/23 06:52:37;;;;;;;6.93;4.75;;;;;;;21.35;87.70;97598.56;4970781;28;20128;-61
2023/08/23 06:55:04;;;;;;;9.40;5.25;;;;;;;21.46;87.05;97603.75;4966071;28;20038;-61
2023/08/23 06:57:31;;;;;;;8.40;5.35;;;;;;;21.55;86.19;97605.44;4963326;28;20141;-61
2023/08/23 06:59:58;;;;;;;12.32;5.28;;;;;;;21.68;86.97;97594.59;5020951;28;21494;-62
2023/08/23 07:02:25;;;;;;;8.18;5.25;;;;;;;21.77;86.12;97602.91;4976324;28;20047;-61
2023/08/23 07:04:53;;;;;;;7.57;4.88;;;;;;;21.87;86.03;97605.38;4966408;28;20050;-62
2023/08/23 07:07:20;;;;;;;7.45;5.22;;;;;;;21.89;85.24;97600.34;4969401;28;20054;-62
2023/08/23 07:09:48;;;;;;;7.47;4.70;;;;;;;21.94;85.12;97597.47;4973669;28;20146;-60
2023/08/23 07:12:15;;;;;;;8.63;5.00;;;;;;;21.99;84.83;97595.66;4974332;28;20146;-61
2023/08/23 07:14:41;;;;;;;8.32;4.68;;;;;;;22.04;84.48;97599.06;4997740;28;20161;-62
2023/08/23 07:17:08;;;;;;;7.80;4.32;;;;;;;22.05;84.34;97600.72;4964713;28;20660;-61
2023/08/23 07:19:35;;;;;;;7.13;4.32;;;;;;;22.15;83.72;97602.31;5000764;28;20476;-61
2023/08/23 07:22:03;;;;;;;6.70;4.90;;;;;;;22.22;84.30;97613.69;4989892;28;20118;-61
2023/08/23 07:24:31;;;;;;;5.88;4.10;;;;;;;22.29;83.48;97613.22;4988123;28;20160;-62
2023/08/23 07:26:57;;;;;;;8.07;5.07;;;;;;;22.37;82.78;97613.53;4961658;28;20050;-61
2023/08/23 07:29:24;;;;;;;9.30;4.90;;;;;;;22.35;82.16;97622.16;4966818;28;20058;-61
2023/08/23 07:31:50;;;;;;;8.50;4.50;;;;;;;22.43;83.32;97620.50;4965344;28;20039;-61
2023/08/23 07:34:17;;;;;;;9.98;4.65;;;;;;;22.48;81.60;97618.41;4999041;28;20050;-61
2023/08/23 07:36:44;;;;;;;7.22;4.28;;;;;;;22.55;81.55;97615.19;4981294;28;20380;-61
2023/08/23 07:39:10;;;;;;;9.02;4.63;;;;;;;22.59;81.62;97618.91;4987526;28;20742;-61
2023/08/23 07:41:37;;;;;;;7.82;4.47;;;;;;;22.69;81.77;97612.25;4997685;28;20040;-62
2023/08/23 07:44:04;;;;;;;9.15;5.32;;;;;;;22.80;80.55;97615.50;4991909;28;20043;-61
2023/08/23 07:46:30;;;;;;;5.45;3.80;;;;;;;22.83;79.99;97619.53;4975531;28;20035;-61
2023/08/23 07:48:57;;;;;;;10.23;4.13;;;;;;;22.85;79.30;97618.06;4989377;28;20049;-61
2023/08/23 07:51:23;;;;;;;6.95;4.20;;;;;;;22.91;79.09;97618.72;4987714;28;20414;-61
2023/08/23 07:53:50;;;;;;;8.73;4.68;;;;;;;23.08;79.76;97612.34;4990169;28;20521;-61
2023/08/23 07:56:17;;;;;;;4.82;3.65;;;;;;;23.18;77.34;97621.44;4967863;28;20042;-61
2023/08/23 07:58:44;;;;;;;5.70;3.47;;;;;;;23.25;75.38;97613.41;4980795;28;20043;-62
2023/08/23 08:01:11;;;;;;;7.88;3.83;;;;;;;23.33;75.65;97618.09;4980494;28;20042;-60
2023/08/23 08:03:39;;;;;;;8.60;4.13;;;;;;;23.37;75.02;97621.84;4977519;28;20070;-61
2023/08/23 08:06:06;;;;;;;6.53;4.20;;;;;;;23.50;75.38;97622.78;4957500;28;20134;-61
2023/08/23 08:08:33;;;;;;;6.38;3.90;;;;;;;23.63;75.25;97625.66;4992263;28;20493;-61
2023/08/23 08:10:59;;;;;;;5.35;3.67;;;;;;;23.62;74.54;97635.13;4970959;28;20441;-61
2023/08/23 08:13:26;;;;;;;6.97;3.67;;;;;;;23.64;74.74;97628.09;4970982;28;20120;-61
2023/08/23 08:15:54;;;;;;;5.60;3.70;;;;;;;23.63;75.05;97622.91;4977347;28;20078;-61
2023/08/23 08:18:21;;;;;;;7.05;4.07;;;;;;;23.67;74.53;97625.81;4991965;28;20040;-61
2023/08/23 08:20:48;;;;;;;7.93;3.58;;;;;;;23.70;74.35;97625.94;4971262;28;20055;-61
2023/08/23 08:23:15;;;;;;;6.15;3.75;;;;;;;23.76;73.86;97627.38;4975317;28;20057;-61
2023/08/23 08:25:42;;;;;;;6.75;3.97;;;;;;;23.81;74.21;97623.59;4986254;28;20063;-61
2023/08/23 08:28:09;;;;;;;6.43;4.00;;;;;;;23.96;75.20;97625.00;4983423;28;20046;-60
2023/08/23 08:30:35;;;;;;;7.05;4.10;;;;;;;24.12;74.75;97627.19;4959054;28;20675;-61
2023/08/23 08:33:02;;;;;;;7.43;4.22;;;;;;;24.14;72.65;97622.94;4964801;28;20035;-61
2023/08/23 08:35:28;;;;;;;7.07;4.15;;;;;;;24.19;73.74;97626.66;4992332;28;20042;-62
2023/08/23 08:37:55;;;;;;;8.07;4.07;;;;;;;24.39;73.21;97625.88;5001904;28;20043;-61
2023/08/23 08:40:22;;;;;;;6.90;3.90;;;;;;;24.44;72.70;97630.41;5000099;28;20496;-62
2023/08/23 08:42:49;;;;;;;7.20;4.30;;;;;;;24.42;72.09;97621.59;4968288;28;20122;-61
2023/08/23 08:45:16;;;;;;;7.95;4.50;;;;;;;24.37;70.85;97624.59;4969970;28;20057;-62
2023/08/23 08:47:43;;;;;;;8.95;4.00;;;;;;;24.41;71.50;97631.06;4960196;28;20043;-61
2023/08/23 08:50:09;;;;;;;7.78;3.90;;;;;;;24.39;70.76;97627.81;4984971;28;20049;-61
2023/08/23 08:52:41;;;;;;;5.78;4.15;;;;;;;24.35;70.94;97632.41;4965789;28;20062;-62
2023/08/23 08:55:10;;;;;;;6.90;4.03;;;;;;;24.36;71.16;97631.28;4986176;28;20070;-61
2023/08/23 08:57:37;;;;;;;8.63;4.10;;;;;;;24.34;71.24;97634.38;4950642;28;20042;-61
2023/08/23 09:00:05;;;;;;;8.07;4.03;;;;;;;24.46;71.24;97644.69;5009571;28;20056;-61
2023/08/23 09:02:32;;;;;;;6.28;3.90;;;;;;;24.50;70.62;97634.56;4971439;28;20047;-61
2023/08/23 09:05:01;;;;;;;6.47;3.95;;;;;;;24.48;69.92;97645.19;4996127;28;21998;-61
2023/08/23 09:07:28;;;;;;;5.13;3.67;;;;;;;24.63;69.56;97642.94;4972768;28;20126;-61
2023/08/23 09:09:57;;;;;;;6.97;3.97;;;;;;;24.66;69.93;97648.59;4980809;28;20070;-61
2023/08/23 09:12:23;;;;;;;7.13;3.67;;;;;;;24.81;68.79;97640.81;4963328;28;20034;-62
2023/08/23 09:14:50;;;;;;;6.07;3.70;;;;;;;24.94;66.87;97647.22;4973180;28;20051;-61
2023/08/23 09:17:20;;;;;;;6.22;3.85;;;;;;;25.08;67.27;97652.47;4962736;28;20047;-62
2023/08/23 09:19:47;;;;;;;6.63;4.05;;;;;;;25.17;66.67;97650.41;4988079;28;20042;-61
2023/08/23 09:22:20;;;;;;;8.52;4.40;;;;;;;25.16;66.15;97654.34;4967117;28;20494;-62
2023/08/23 09:24:47;;;;;;;7.60;4.15;;;;;;;25.16;65.28;97643.28;4984406;28;20054;-62
2023/08/23 09:27:14;;;;;;;7.38;3.92;;;;;;;25.22;65.70;97641.09;4977385;28;20501;-61
2023/08/23 09:30:03;;;;;;;8.25;3.55;;;;;;;25.35;66.06;97641.91;4977932;28;20053;-62
2023/08/23 09:32:30;;;;;;;7.65;4.10;;;;;;;25.39;65.79;97639.28;4973195;28;20644;-62
2023/08/23 09:34:57;;;;;;;6.93;4.10;;;;;;;25.31;65.30;97633.50;4974767;28;20566;-62
2023/08/23 09:37:27;;;;;;;8.63;4.32;;;;;;;25.36;65.45;97628.88;4988198;28;20049;-61
2023/08/23 09:39:53;;;;;;;7.20;4.07;;;;;;;25.39;65.84;97631.75;4972738;28;20047;-61
2023/08/23 09:42:20;;;;;;;6.15;3.83;;;;;;;25.52;66.77;97624.28;4973807;28;20062;-62
2023/08/23 09:44:50;;;;;;;6.97;4.05;;;;;;;25.61;65.15;97621.41;4968536;28;20046;-62
2023/08/23 09:47:21;;;;;;;9.95;4.35;;;;;;;25.77;65.64;97616.00;4975877;28;20043;-62
2023/08/23 09:49:48;;;;;;;6.05;3.90;;;;;;;25.89;63.70;97619.91;4987552;28;20120;-62
2023/08/23 09:52:15;;;;;;;8.18;4.15;;;;;;;25.94;65.06;97625.25;4977896;28;20046;-62
2023/08/23 09:55:02;;;;;;;7.82;3.78;;;;;;;25.86;62.63;97623.41;4980701;28;20082;-62
2023/08/23 09:57:41;;;;;;;5.68;3.67;;;;;;;25.83;63.49;97631.22;4999590;28;20591;-62
2023/08/23 10:00:08;;;;;;;6.13;4.05;;;;;;;25.81;63.62;97627.19;4995341;28;20911;-62
2023/08/23 10:02:36;;;;;;;11.93;4.18;;;;;;;25.89;63.37;97617.13;4974054;28;20062;-61
2023/08/23 10:05:06;;;;;;;5.97;3.53;;;;;;;25.79;63.95;97607.34;4997693;28;20057;-61
2023/08/23 10:07:34;;;;;;;6.53;3.40;;;;;;;25.77;63.43;97616.00;4976924;28;20047;-61
2023/08/23 10:10:03;;;;;;;6.18;3.65;;;;;;;25.89;62.71;97606.03;4968590;28;20046;-62
2023/08/23 10:12:31;;;;;;;10.15;4.28;;;;;;;25.84;61.56;97604.31;4989319;28;20092;-61
2023/08/23 10:14:59;;;;;;;9.82;4.28;;;;;;;25.90;62.33;97605.69;4985758;28;20057;-61
2023/08/23 10:17:27;;;;;;;7.60;3.95;;;;;;;25.86;61.89;97603.97;4982768;28;20526;-61
2023/08/23 10:19:53;;;;;;;5.35;3.67;;;;;;;25.98;62.06;97610.31;4977487;28;20108;-62
2023/08/23 10:22:20;;;;;;;6.38;3.20;;;;;;;26.09;61.82;97612.63;4980560;28;20042;-62
2023/08/23 10:24:48;;;;;;;5.80;3.60;;;;;;;26.25;60.95;97612.69;4975130;28;20047;-62
2023/08/23 10:27:15;;;;;;;7.03;3.80;;;;;;;26.40;60.80;97610.34;4978394;28;20038;-61
2023/08/23 10:29:42;;;;;;;5.55;3.28;;;;;;;26.48;59.52;97617.75;4970070;28;20051;-62
2023/08/23 10:32:11;;;;;;;7.97;3.60;;;;;;;26.53;59.29;97620.25;4967979;28;20031;-62
2023/08/23 10:34:40;;;;;;;7.30;3.70;;;;;;;26.70;59.05;97618.34;4973756;28;20126;-61
2023/08/23 10:37:20;;;;;;;7.55;3.70;;;;;;;26.79;58.48;97613.44;5006634;28;20044;-61
2023/08/23 10:39:52;;;;;;;4.55;3.22;;;;;;;26.84;57.57;97618.75;4989962;28;20050;-61
2023/08/23 10:42:20;;;;;;;7.47;3.60;;;;;;;26.98;57.49;97620.34;4975649;28;20399;-61
2023/08/23 10:44:53;;;;;;;7.88;3.63;;;;;;;26.85;57.12;97620.38;4983601;28;20053;-61
2023/08/23 10:47:21;;;;;;;5.18;3.35;;;;;;;26.94;58.43;97611.88;4992365;28;20128;-61
2023/08/23 10:49:49;;;;;;;6.65;3.45;;;;;;;27.06;57.29;97624.09;4975665;28;20051;-61
2023/08/23 10:52:16;;;;;;;4.72;3.08;;;;;;;27.09;56.81;97621.41;4990472;28;20131;-61
2023/08/23 10:54:43;;;;;;;7.93;3.53;;;;;;;27.05;55.90;97616.94;4985631;28;20450;-61
2023/08/23 10:57:09;;;;;;;6.78;3.50;;;;;;;26.90;56.19;97624.06;4993628;28;20047;-61
2023/08/23 10:59:36;;;;;;;6.47;3.40;;;;;;;27.01;56.69;97612.09;4996784;28;20054;-61
2023/08/23 11:02:03;;;;;;;8.15;3.60;;;;;;;27.05;56.00;97612.19;4969177;28;20102;-61
2023/08/23 11:04:30;;;;;;;5.40;2.95;;;;;;;27.15;56.11;97610.84;4990765;28;20742;-61
2023/08/23 11:06:57;;;;;;;5.55;3.22;;;;;;;27.24;55.15;97607.91;4964566;28;20116;-62
2023/08/23 11:09:24;;;;;;;4.90;3.17;;;;;;;27.31;55.58;97602.50;4985825;28;20053;-61
2023/08/23 11:11:51;;;;;;;9.32;3.42;;;;;;;27.14;55.45;97601.72;4978023;28;20132;-61
2023/08/23 11:14:17;;;;;;;7.68;3.65;;;;;;;27.16;55.04;97606.13;4990272;28;20069;-61
2023/08/23 11:16:44;;;;;;;6.80;3.78;;;;;;;27.14;55.18;97598.94;4975057;28;20053;-61
2023/08/23 11:19:12;;;;;;;9.48;3.42;;;;;;;27.11;54.52;97605.22;4995665;28;20196;-61
2023/08/23 11:21:39;;;;;;;4.97;3.00;;;;;;;27.13;55.07;97597.31;4971452;28;20518;-61
2023/08/23 11:24:06;;;;;;;5.75;3.00;;;;;;;27.26;55.50;97597.22;4988626;28;20670;-61
2023/08/23 11:26:34;;;;;;;6.15;3.20;;;;;;;27.36;54.59;97598.69;5003947;28;20047;-62
2023/08/23 11:29:01;;;;;;;9.45;3.40;;;;;;;27.32;54.21;97600.56;4984754;28;20585;-62